Chesapeake — WDD3041 — position and weather

sailwx.info

Track history (hours):
 
Tides and Currents Weather Stations Pressure Air Temp Water Temp Dewpoint Dewpoint Depression Visibility Wind Speed Wind Dir Waves Ship Positions

Chesapeake

Owner: Vane Line Bunkering, Baltimore, MD. More information available from US FCC via Universal Licensing System and Coast Guard Vessel Documentation Center.

Last reported at 2016-Sep-28 16:34 UTC. Time now 2016-Sep-28 17:06 UTC.
Position N 39°53' W 075°12'.

Length 34 m.

Type: Tug. MMSI: 367123040.

Date/timePositionNaut miles runAvg speedWind from/ knotsBaromVisibWave heightAir tempDewpointWater temp
2016-Sep-28 16:34N 39°53' W 075°12'0 0.0
2016-Sep-28 15:34N 39°53' W 075°12'0 0.0
2016-Sep-28 12:34N 39°53' W 075°12'0 0.1
2016-Sep-28 08:34N 39°54' W 075°12'0 0.0
2016-Sep-28 03:33N 39°54' W 075°12'0 0.0
2016-Sep-28 02:34N 39°54' W 075°12'0 0.0
2016-Sep-28 01:34N 39°54' W 075°12'1 0.5
2016-Sep-27 23:34N 39°53' W 075°12'26 6.6
2016-Sep-27 19:34N 39°33' W 075°35'43 8.5
2016-Sep-27 14:33N 39°07' W 076°19'8 7.7
2016-Sep-27 13:34N 39°00' W 076°23'123 3.1
2016-Sep-25 21:20N 36°57' W 076°24'121 8.8
2016-Sep-25 07:34N 38°58' W 076°23'24 8.0
2016-Sep-25 04:34N 39°20' W 076°11'33 8.4
2016-Sep-25 00:33N 39°38' W 075°35'13 6.7
2016-Sep-24 22:33N 39°48' W 075°24'0 0.0
2016-Sep-24 21:32N 39°48' W 075°24'0 0.0
2016-Sep-24 19:34N 39°48' W 075°24'0 0.2
2016-Sep-24 18:33N 39°48' W 075°24'0 0.0
2016-Sep-24 17:34N 39°48' W 075°24'0 0.0
2016-Sep-24 16:34N 39°48' W 075°24'0 0.0
2016-Sep-24 14:33N 39°48' W 075°24'0 0.1
2016-Sep-24 12:33N 39°48' W 075°24'0 0.0
2016-Sep-24 10:33N 39°48' W 075°24'0 0.0
2016-Sep-24 09:33N 39°48' W 075°24'11 1.8
2016-Sep-24 03:33N 39°54' W 075°12'0 0.0
2016-Sep-24 02:33N 39°54' W 075°12'0 0.0
2016-Sep-24 01:33N 39°54' W 075°12'0 0.1
2016-Sep-24 00:33N 39°54' W 075°12'0 0.0
2016-Sep-23 19:33N 39°54' W 075°12'0 0.0
2016-Sep-23 17:33N 39°54' W 075°12'17 2.2
2016-Sep-23 09:33N 39°43' W 075°30'25 8.4
2016-Sep-23 06:33N 39°18' W 075°23'19 9.5
2016-Sep-23 04:33N 39°02' W 075°10'9 9.3
2016-Sep-23 03:33N 38°54' W 075°05'9 8.6
2016-Sep-23 02:32N 38°49' W 074°56'9 9.2
2016-Sep-23 01:34N 38°54' W 074°47'10 9.2
2016-Sep-23 00:27N 39°01' W 074°38'8 8.5
2016-Sep-22 23:33N 39°07' W 074°31'28 8.7
2016-Sep-22 20:21N 39°29' W 074°08'65 8.3
2016-Sep-22 12:33N 40°34' W 074°02'  
2016-Sep-20 02:33N 40°54' W 073°55'23 7.7
2016-Sep-19 23:33N 40°31' W 073°58'37 7.3
2016-Sep-19 18:32N 39°54' W 073°57'14 7.2
2016-Sep-19 16:33N 39°40' W 074°01'15 7.4
2016-Sep-19 14:33N 39°27' W 074°10'38 7.6
2016-Sep-19 09:29N 38°58' W 074°42'14 7.2
2016-Sep-19 07:34N 38°49' W 074°55'28 7.0
2016-Sep-19 03:33N 39°11' W 075°17'5 5.4
2016-Sep-19 02:33N 39°16' W 075°20'10 4.8
2016-Sep-19 00:33N 39°23' W 075°29'34 6.8
2016-Sep-18 19:34N 39°55' W 075°13'  
Track history (hours):
 
Tides and Currents Weather Stations Pressure Air Temp Water Temp Dewpoint Dewpoint Depression Visibility Wind Speed Wind Dir Waves Ship Positions

Chesapeake

Owner: Vane Line Bunkering, Baltimore, MD. More information available from US FCC via Universal Licensing System and Coast Guard Vessel Documentation Center.

Last reported at 2016-Sep-28 16:34 UTC. Time now 2016-Sep-28 17:06 UTC.
Position N 39°53' W 075°12'.

Length 34 m.

Type: Tug. MMSI: 367123040.

Date/timePositionNaut miles runAvg speedWind from/ knotsBaromVisibWave heightAir tempDewpointWater temp
2016-Sep-28 16:34N 39°53' W 075°12'0 0.0
2016-Sep-28 15:34N 39°53' W 075°12'0 0.0
2016-Sep-28 12:34N 39°53' W 075°12'0 0.1
2016-Sep-28 08:34N 39°54' W 075°12'0 0.0
2016-Sep-28 03:33N 39°54' W 075°12'0 0.0
2016-Sep-28 02:34N 39°54' W 075°12'0 0.0
2016-Sep-28 01:34N 39°54' W 075°12'1 0.5
2016-Sep-27 23:34N 39°53' W 075°12'26 6.6
2016-Sep-27 19:34N 39°33' W 075°35'43 8.5
2016-Sep-27 14:33N 39°07' W 076°19'8 7.7
2016-Sep-27 13:34N 39°00' W 076°23'123 3.1
2016-Sep-25 21:20N 36°57' W 076°24'121 8.8
2016-Sep-25 07:34N 38°58' W 076°23'24 8.0
2016-Sep-25 04:34N 39°20' W 076°11'33 8.4
2016-Sep-25 00:33N 39°38' W 075°35'13 6.7
2016-Sep-24 22:33N 39°48' W 075°24'0 0.0
2016-Sep-24 21:32N 39°48' W 075°24'0 0.0
2016-Sep-24 19:34N 39°48' W 075°24'0 0.2
2016-Sep-24 18:33N 39°48' W 075°24'0 0.0
2016-Sep-24 17:34N 39°48' W 075°24'0 0.0
2016-Sep-24 16:34N 39°48' W 075°24'0 0.0
2016-Sep-24 14:33N 39°48' W 075°24'0 0.1
2016-Sep-24 12:33N 39°48' W 075°24'0 0.0
2016-Sep-24 10:33N 39°48' W 075°24'0 0.0
2016-Sep-24 09:33N 39°48' W 075°24'11 1.8
2016-Sep-24 03:33N 39°54' W 075°12'0 0.0
2016-Sep-24 02:33N 39°54' W 075°12'0 0.0
2016-Sep-24 01:33N 39°54' W 075°12'0 0.1
2016-Sep-24 00:33N 39°54' W 075°12'0 0.0
2016-Sep-23 19:33N 39°54' W 075°12'0 0.0
2016-Sep-23 17:33N 39°54' W 075°12'17 2.2
2016-Sep-23 09:33N 39°43' W 075°30'25 8.4
2016-Sep-23 06:33N 39°18' W 075°23'19 9.5
2016-Sep-23 04:33N 39°02' W 075°10'9 9.3
2016-Sep-23 03:33N 38°54' W 075°05'9 8.6
2016-Sep-23 02:32N 38°49' W 074°56'9 9.2
2016-Sep-23 01:34N 38°54' W 074°47'10 9.2
2016-Sep-23 00:27N 39°01' W 074°38'8 8.5
2016-Sep-22 23:33N 39°07' W 074°31'28 8.7
2016-Sep-22 20:21N 39°29' W 074°08'65 8.3
2016-Sep-22 12:33N 40°34' W 074°02'  
2016-Sep-20 02:33N 40°54' W 073°55'23 7.7
2016-Sep-19 23:33N 40°31' W 073°58'37 7.3
2016-Sep-19 18:32N 39°54' W 073°57'14 7.2
2016-Sep-19 16:33N 39°40' W 074°01'15 7.4
2016-Sep-19 14:33N 39°27' W 074°10'38 7.6
2016-Sep-19 09:29N 38°58' W 074°42'14 7.2
2016-Sep-19 07:34N 38°49' W 074°55'28 7.0
2016-Sep-19 03:33N 39°11' W 075°17'5 5.4
2016-Sep-19 02:33N 39°16' W 075°20'10 4.8
2016-Sep-19 00:33N 39°23' W 075°29'34 6.8
2016-Sep-18 19:34N 39°55' W 075°13'  

Dump ship's entire track history